sensor_id;sensor_type;location;lat;lon;timestamp;temperature;humidity
70269;DHT22;58514;48.398;-4.274;2022-07-15T00:01:15;18.70;65.40
70269;DHT22;58514;48.398;-4.274;2022-07-15T00:03:41;18.70;66.10
70269;DHT22;58514;48.398;-4.274;2022-07-15T00:06:07;18.70;65.60
70269;DHT22;58514;48.398;-4.274;2022-07-15T00:08:32;18.70;66.10
70269;DHT22;58514;48.398;-4.274;2022-07-15T00:10:58;18.60;66.00
70269;DHT22;58514;48.398;-4.274;2022-07-15T00:13:24;18.70;66.00
70269;DHT22;58514;48.398;-4.274;2022-07-15T00:15:51;18.60;66.00
70269;DHT22;58514;48.398;-4.274;2022-07-15T00:18:16;18.60;65.80
70269;DHT22;58514;48.398;-4.274;2022-07-15T00:20:42;18.50;66.20
70269;DHT22;58514;48.398;-4.274;2022-07-15T00:23:08;18.50;66.30
70269;DHT22;58514;48.398;-4.274;2022-07-15T00:25:34;18.50;65.90
70269;DHT22;58514;48.398;-4.274;2022-07-15T00:28:01;18.50;66.50
70269;DHT22;58514;48.398;-4.274;2022-07-15T00:30:32;18.40;66.60
70269;DHT22;58514;48.398;-4.274;2022-07-15T00:32:58;18.40;66.60
70269;DHT22;58514;48.398;-4.274;2022-07-15T00:35:26;18.40;67.10
70269;DHT22;58514;48.398;-4.274;2022-07-15T00:37:52;18.40;66.90
70269;DHT22;58514;48.398;-4.274;2022-07-15T00:40:17;18.40;67.30
70269;DHT22;58514;48.398;-4.274;2022-07-15T00:42:44;18.40;67.70
70269;DHT22;58514;48.398;-4.274;2022-07-15T00:45:14;18.40;67.80
70269;DHT22;58514;48.398;-4.274;2022-07-15T00:47:42;18.40;67.80
70269;DHT22;58514;48.398;-4.274;2022-07-15T00:50:08;18.40;69.30
70269;DHT22;58514;48.398;-4.274;2022-07-15T00:52:39;18.40;67.90
70269;DHT22;58514;48.398;-4.274;2022-07-15T00:55:07;18.40;68.60
70269;DHT22;58514;48.398;-4.274;2022-07-15T00:57:37;18.40;68.30
70269;DHT22;58514;48.398;-4.274;2022-07-15T01:00:05;18.40;68.40
70269;DHT22;58514;48.398;-4.274;2022-07-15T01:02:32;18.40;68.20
70269;DHT22;58514;48.398;-4.274;2022-07-15T01:05:00;18.30;67.90
70269;DHT22;58514;48.398;-4.274;2022-07-15T01:07:28;18.30;68.10
70269;DHT22;58514;48.398;-4.274;2022-07-15T01:09:55;18.30;68.50
70269;DHT22;58514;48.398;-4.274;2022-07-15T01:12:20;18.30;68.60
70269;DHT22;58514;48.398;-4.274;2022-07-15T01:14:47;18.30;68.50
70269;DHT22;58514;48.398;-4.274;2022-07-15T01:17:14;18.20;68.00
70269;DHT22;58514;48.398;-4.274;2022-07-15T01:19:40;18.20;68.60
70269;DHT22;58514;48.398;-4.274;2022-07-15T01:22:06;18.20;68.70
70269;DHT22;58514;48.398;-4.274;2022-07-15T01:24:33;18.10;69.40
70269;DHT22;58514;48.398;-4.274;2022-07-15T01:26:59;18.10;69.70
70269;DHT22;58514;48.398;-4.274;2022-07-15T01:29:26;18.00;69.00
70269;DHT22;58514;48.398;-4.274;2022-07-15T01:31:53;18.00;69.40
70269;DHT22;58514;48.398;-4.274;2022-07-15T01:34:19;18.00;69.30
70269;DHT22;58514;48.398;-4.274;2022-07-15T01:36:45;18.00;69.60
70269;DHT22;58514;48.398;-4.274;2022-07-15T01:39:11;17.90;69.90
70269;DHT22;58514;48.398;-4.274;2022-07-15T01:41:37;18.00;70.20
70269;DHT22;58514;48.398;-4.274;2022-07-15T01:44:03;17.90;70.30
70269;DHT22;58514;48.398;-4.274;2022-07-15T01:46:29;17.90;71.60
70269;DHT22;58514;48.398;-4.274;2022-07-15T01:48:55;17.80;69.90
70269;DHT22;58514;48.398;-4.274;2022-07-15T01:51:39;17.80;70.70
70269;DHT22;58514;48.398;-4.274;2022-07-15T01:54:05;17.70;70.90
70269;DHT22;58514;48.398;-4.274;2022-07-15T01:56:31;17.60;71.80
70269;DHT22;58514;48.398;-4.274;2022-07-15T01:58:57;17.60;72.10
70269;DHT22;58514;48.398;-4.274;2022-07-15T02:01:22;17.50;71.50
70269;DHT22;58514;48.398;-4.274;2022-07-15T02:03:48;17.60;72.00
70269;DHT22;58514;48.398;-4.274;2022-07-15T02:06:14;17.60;71.70
70269;DHT22;58514;48.398;-4.274;2022-07-15T02:08:39;17.60;73.10
70269;DHT22;58514;48.398;-4.274;2022-07-15T02:11:05;17.50;71.50
70269;DHT22;58514;48.398;-4.274;2022-07-15T02:13:33;17.50;71.80
70269;DHT22;58514;48.398;-4.274;2022-07-15T02:15:58;17.50;71.50
70269;DHT22;58514;48.398;-4.274;2022-07-15T02:18:24;17.50;72.50
70269;DHT22;58514;48.398;-4.274;2022-07-15T02:20:50;17.50;72.80
70269;DHT22;58514;48.398;-4.274;2022-07-15T02:23:16;17.50;72.10
70269;DHT22;58514;48.398;-4.274;2022-07-15T02:25:42;17.50;72.50
70269;DHT22;58514;48.398;-4.274;2022-07-15T02:28:07;17.50;72.70
70269;DHT22;58514;48.398;-4.274;2022-07-15T02:30:38;17.60;72.60
70269;DHT22;58514;48.398;-4.274;2022-07-15T02:33:04;17.50;72.10
70269;DHT22;58514;48.398;-4.274;2022-07-15T02:35:31;17.60;72.80
70269;DHT22;58514;48.398;-4.274;2022-07-15T02:37:57;17.60;72.90
70269;DHT22;58514;48.398;-4.274;2022-07-15T02:40:25;17.60;73.00
70269;DHT22;58514;48.398;-4.274;2022-07-15T02:42:53;17.60;73.00
70269;DHT22;58514;48.398;-4.274;2022-07-15T02:45:21;17.60;73.80
70269;DHT22;58514;48.398;-4.274;2022-07-15T02:47:47;17.70;73.10
70269;DHT22;58514;48.398;-4.274;2022-07-15T02:50:14;17.70;73.50
70269;DHT22;58514;48.398;-4.274;2022-07-15T02:52:40;17.70;73.40
70269;DHT22;58514;48.398;-4.274;2022-07-15T02:55:07;17.70;72.40
70269;DHT22;58514;48.398;-4.274;2022-07-15T02:57:33;17.80;72.70
70269;DHT22;58514;48.398;-4.274;2022-07-15T02:59:58;17.70;73.70
70269;DHT22;58514;48.398;-4.274;2022-07-15T03:02:25;17.70;73.20
70269;DHT22;58514;48.398;-4.274;2022-07-15T03:04:50;17.70;72.80
70269;DHT22;58514;48.398;-4.274;2022-07-15T03:07:16;17.70;73.00
70269;DHT22;58514;48.398;-4.274;2022-07-15T03:09:42;17.70;72.50
70269;DHT22;58514;48.398;-4.274;2022-07-15T03:12:07;17.70;72.40
70269;DHT22;58514;48.398;-4.274;2022-07-15T03:14:33;17.70;72.90
70269;DHT22;58514;48.398;-4.274;2022-07-15T03:16:59;17.60;72.10
70269;DHT22;58514;48.398;-4.274;2022-07-15T03:19:25;17.60;72.20
70269;DHT22;58514;48.398;-4.274;2022-07-15T03:21:50;17.60;72.80
70269;DHT22;58514;48.398;-4.274;2022-07-15T03:24:16;17.60;72.90
70269;DHT22;58514;48.398;-4.274;2022-07-15T03:26:42;17.50;72.90
70269;DHT22;58514;48.398;-4.274;2022-07-15T03:29:09;17.50;73.00
70269;DHT22;58514;48.398;-4.274;2022-07-15T03:31:35;17.50;73.60
70269;DHT22;58514;48.398;-4.274;2022-07-15T03:34:00;17.50;73.20
70269;DHT22;58514;48.398;-4.274;2022-07-15T03:36:27;17.50;73.20
70269;DHT22;58514;48.398;-4.274;2022-07-15T03:38:52;17.50;73.40
70269;DHT22;58514;48.398;-4.274;2022-07-15T03:41:19;17.50;73.30
70269;DHT22;58514;48.398;-4.274;2022-07-15T03:43:44;17.40;73.20
70269;DHT22;58514;48.398;-4.274;2022-07-15T03:46:10;17.40;73.00
70269;DHT22;58514;48.398;-4.274;2022-07-15T03:48:36;17.30;73.50
70269;DHT22;58514;48.398;-4.274;2022-07-15T03:51:02;17.30;74.10
70269;DHT22;58514;48.398;-4.274;2022-07-15T03:53:27;17.30;74.50
70269;DHT22;58514;48.398;-4.274;2022-07-15T03:55:53;17.30;74.40
70269;DHT22;58514;48.398;-4.274;2022-07-15T03:58:19;17.30;74.50
70269;DHT22;58514;48.398;-4.274;2022-07-15T04:00:45;17.40;74.20
70269;DHT22;58514;48.398;-4.274;2022-07-15T04:03:10;17.40;73.70
70269;DHT22;58514;48.398;-4.274;2022-07-15T04:05:36;17.30;74.10
70269;DHT22;58514;48.398;-4.274;2022-07-15T04:08:04;17.30;74.10
70269;DHT22;58514;48.398;-4.274;2022-07-15T04:10:30;17.30;74.20
70269;DHT22;58514;48.398;-4.274;2022-07-15T04:12:56;17.30;74.50
70269;DHT22;58514;48.398;-4.274;2022-07-15T04:15:22;17.20;73.50
70269;DHT22;58514;48.398;-4.274;2022-07-15T04:17:47;17.20;74.10
70269;DHT22;58514;48.398;-4.274;2022-07-15T04:20:13;17.30;74.70
70269;DHT22;58514;48.398;-4.274;2022-07-15T04:22:43;17.20;75.40
70269;DHT22;58514;48.398;-4.274;2022-07-15T04:25:11;17.20;75.70
70269;DHT22;58514;48.398;-4.274;2022-07-15T04:27:37;17.10;76.30
70269;DHT22;58514;48.398;-4.274;2022-07-15T04:30:06;17.10;75.00
70269;DHT22;58514;48.398;-4.274;2022-07-15T04:32:33;17.00;75.60
70269;DHT22;58514;48.398;-4.274;2022-07-15T04:34:59;17.10;76.00
70269;DHT22;58514;48.398;-4.274;2022-07-15T04:37:24;17.10;75.60
70269;DHT22;58514;48.398;-4.274;2022-07-15T04:39:50;17.10;76.20
70269;DHT22;58514;48.398;-4.274;2022-07-15T04:42:16;17.10;75.90
70269;DHT22;58514;48.398;-4.274;2022-07-15T04:44:42;17.10;75.60
70269;DHT22;58514;48.398;-4.274;2022-07-15T04:47:07;17.10;75.90
70269;DHT22;58514;48.398;-4.274;2022-07-15T04:49:33;17.10;75.70
70269;DHT22;58514;48.398;-4.274;2022-07-15T04:52:17;17.00;75.90
70269;DHT22;58514;48.398;-4.274;2022-07-15T04:54:43;17.00;75.60
70269;DHT22;58514;48.398;-4.274;2022-07-15T04:57:09;17.00;76.20
70269;DHT22;58514;48.398;-4.274;2022-07-15T04:59:37;17.00;76.00
70269;DHT22;58514;48.398;-4.274;2022-07-15T05:02:03;17.00;75.80
70269;DHT22;58514;48.398;-4.274;2022-07-15T05:04:28;17.00;76.70
70269;DHT22;58514;48.398;-4.274;2022-07-15T05:06:54;17.00;77.20
70269;DHT22;58514;48.398;-4.274;2022-07-15T05:09:20;17.00;77.30
70269;DHT22;58514;48.398;-4.274;2022-07-15T05:11:45;16.90;77.10
70269;DHT22;58514;48.398;-4.274;2022-07-15T05:14:11;16.90;77.80
70269;DHT22;58514;48.398;-4.274;2022-07-15T05:16:37;16.80;78.30
70269;DHT22;58514;48.398;-4.274;2022-07-15T05:19:02;16.70;78.90
70269;DHT22;58514;48.398;-4.274;2022-07-15T05:21:29;16.70;78.40
70269;DHT22;58514;48.398;-4.274;2022-07-15T05:23:55;16.70;78.30
70269;DHT22;58514;48.398;-4.274;2022-07-15T05:26:21;16.80;78.60
70269;DHT22;58514;48.398;-4.274;2022-07-15T05:28:46;16.80;78.90
70269;DHT22;58514;48.398;-4.274;2022-07-15T05:31:12;16.80;78.60
70269;DHT22;58514;48.398;-4.274;2022-07-15T05:33:38;16.80;79.50
70269;DHT22;58514;48.398;-4.274;2022-07-15T05:36:04;16.80;80.10
70269;DHT22;58514;48.398;-4.274;2022-07-15T05:38:31;16.90;79.40
70269;DHT22;58514;48.398;-4.274;2022-07-15T05:40:56;16.90;80.40
70269;DHT22;58514;48.398;-4.274;2022-07-15T05:43:22;16.90;79.80
70269;DHT22;58514;48.398;-4.274;2022-07-15T05:45:49;17.00;79.80
70269;DHT22;58514;48.398;-4.274;2022-07-15T05:48:14;17.00;79.00
70269;DHT22;58514;48.398;-4.274;2022-07-15T05:50:40;17.00;79.60
70269;DHT22;58514;48.398;-4.274;2022-07-15T05:53:06;17.00;80.30
70269;DHT22;58514;48.398;-4.274;2022-07-15T05:55:32;17.00;79.70
70269;DHT22;58514;48.398;-4.274;2022-07-15T05:57:57;17.00;79.80
70269;DHT22;58514;48.398;-4.274;2022-07-15T06:00:23;17.10;80.00
70269;DHT22;58514;48.398;-4.274;2022-07-15T06:02:49;17.10;79.50
70269;DHT22;58514;48.398;-4.274;2022-07-15T06:05:15;17.20;79.30
70269;DHT22;58514;48.398;-4.274;2022-07-15T06:07:40;17.30;79.90
70269;DHT22;58514;48.398;-4.274;2022-07-15T06:10:07;17.30;79.40
70269;DHT22;58514;48.398;-4.274;2022-07-15T06:12:33;17.40;79.00
70269;DHT22;58514;48.398;-4.274;2022-07-15T06:14:59;17.40;78.90
70269;DHT22;58514;48.398;-4.274;2022-07-15T06:17:25;17.50;78.90
70269;DHT22;58514;48.398;-4.274;2022-07-15T06:19:51;17.50;79.20
70269;DHT22;58514;48.398;-4.274;2022-07-15T06:22:16;17.60;78.70
70269;DHT22;58514;48.398;-4.274;2022-07-15T06:24:42;17.60;79.60
70269;DHT22;58514;48.398;-4.274;2022-07-15T06:27:08;17.60;79.50
70269;DHT22;58514;48.398;-4.274;2022-07-15T06:29:34;17.60;79.10
70269;DHT22;58514;48.398;-4.274;2022-07-15T06:31:59;17.60;78.90
70269;DHT22;58514;48.398;-4.274;2022-07-15T06:34:25;17.70;79.70
70269;DHT22;58514;48.398;-4.274;2022-07-15T06:36:51;17.70;79.10
70269;DHT22;58514;48.398;-4.274;2022-07-15T06:39:17;17.70;79.40
70269;DHT22;58514;48.398;-4.274;2022-07-15T06:41:43;17.80;80.30
70269;DHT22;58514;48.398;-4.274;2022-07-15T06:44:08;17.80;80.50
70269;DHT22;58514;48.398;-4.274;2022-07-15T06:46:34;17.80;78.90
70269;DHT22;58514;48.398;-4.274;2022-07-15T06:49:00;17.80;79.40
70269;DHT22;58514;48.398;-4.274;2022-07-15T06:51:26;17.80;80.40
70269;DHT22;58514;48.398;-4.274;2022-07-15T06:53:51;17.80;79.60
70269;DHT22;58514;48.398;-4.274;2022-07-15T06:56:17;17.80;79.80
70269;DHT22;58514;48.398;-4.274;2022-07-15T06:58:43;17.80;80.20
70269;DHT22;58514;48.398;-4.274;2022-07-15T07:01:09;17.90;80.20
70269;DHT22;58514;48.398;-4.274;2022-07-15T07:03:34;17.90;80.60
70269;DHT22;58514;48.398;-4.274;2022-07-15T07:06:00;17.90;79.70
70269;DHT22;58514;48.398;-4.274;2022-07-15T07:08:26;18.00;80.50
70269;DHT22;58514;48.398;-4.274;2022-07-15T07:10:53;18.00;80.10
70269;DHT22;58514;48.398;-4.274;2022-07-15T07:13:19;18.10;79.90
70269;DHT22;58514;48.398;-4.274;2022-07-15T07:15:44;18.20;80.60
70269;DHT22;58514;48.398;-4.274;2022-07-15T07:18:10;18.20;80.80
70269;DHT22;58514;48.398;-4.274;2022-07-15T07:20:37;18.30;80.50
70269;DHT22;58514;48.398;-4.274;2022-07-15T07:23:03;18.30;79.80
70269;DHT22;58514;48.398;-4.274;2022-07-15T07:25:28;18.30;79.90
70269;DHT22;58514;48.398;-4.274;2022-07-15T07:27:54;18.40;80.60
70269;DHT22;58514;48.398;-4.274;2022-07-15T07:30:20;18.40;80.70
70269;DHT22;58514;48.398;-4.274;2022-07-15T07:32:46;18.40;79.50
70269;DHT22;58514;48.398;-4.274;2022-07-15T07:35:12;18.50;80.60
70269;DHT22;58514;48.398;-4.274;2022-07-15T07:37:38;18.60;79.80
70269;DHT22;58514;48.398;-4.274;2022-07-15T07:40:05;18.60;78.70
70269;DHT22;58514;48.398;-4.274;2022-07-15T07:42:32;18.70;78.90
70269;DHT22;58514;48.398;-4.274;2022-07-15T07:44:57;18.70;78.80
70269;DHT22;58514;48.398;-4.274;2022-07-15T07:47:28;18.80;78.40
70269;DHT22;58514;48.398;-4.274;2022-07-15T07:49:53;18.90;78.40
70269;DHT22;58514;48.398;-4.274;2022-07-15T07:52:19;18.90;77.90
70269;DHT22;58514;48.398;-4.274;2022-07-15T07:54:45;19.00;78.50
70269;DHT22;58514;48.398;-4.274;2022-07-15T07:57:11;19.10;77.90
70269;DHT22;58514;48.398;-4.274;2022-07-15T07:59:36;19.10;76.80
70269;DHT22;58514;48.398;-4.274;2022-07-15T08:02:03;19.20;77.30
70269;DHT22;58514;48.398;-4.274;2022-07-15T08:04:30;19.30;77.50
70269;DHT22;58514;48.398;-4.274;2022-07-15T08:06:56;19.30;77.70
70269;DHT22;58514;48.398;-4.274;2022-07-15T08:09:22;19.40;78.00
70269;DHT22;58514;48.398;-4.274;2022-07-15T08:11:48;19.50;76.90
70269;DHT22;58514;48.398;-4.274;2022-07-15T08:14:14;19.60;76.70
70269;DHT22;58514;48.398;-4.274;2022-07-15T08:16:40;19.60;76.20
70269;DHT22;58514;48.398;-4.274;2022-07-15T08:19:08;19.70;75.60
70269;DHT22;58514;48.398;-4.274;2022-07-15T08:21:34;19.80;73.40
70269;DHT22;58514;48.398;-4.274;2022-07-15T08:24:00;19.80;73.50
70269;DHT22;58514;48.398;-4.274;2022-07-15T08:26:25;19.80;74.20
70269;DHT22;58514;48.398;-4.274;2022-07-15T08:28:52;19.90;72.50
70269;DHT22;58514;48.398;-4.274;2022-07-15T08:31:18;19.90;72.20
70269;DHT22;58514;48.398;-4.274;2022-07-15T08:33:45;19.90;71.10
70269;DHT22;58514;48.398;-4.274;2022-07-15T08:36:10;20.00;73.20
70269;DHT22;58514;48.398;-4.274;2022-07-15T08:38:37;20.00;72.50
70269;DHT22;58514;48.398;-4.274;2022-07-15T08:41:03;20.10;72.70
70269;DHT22;58514;48.398;-4.274;2022-07-15T08:43:29;20.20;72.70
70269;DHT22;58514;48.398;-4.274;2022-07-15T08:45:55;20.30;69.20
70269;DHT22;58514;48.398;-4.274;2022-07-15T08:48:28;20.30;69.90
70269;DHT22;58514;48.398;-4.274;2022-07-15T08:50:59;20.40;68.30
70269;DHT22;58514;48.398;-4.274;2022-07-15T08:53:27;20.40;68.00
70269;DHT22;58514;48.398;-4.274;2022-07-15T08:55:56;20.50;68.30
70269;DHT22;58514;48.398;-4.274;2022-07-15T08:58:22;20.50;70.20
70269;DHT22;58514;48.398;-4.274;2022-07-15T09:00:48;20.60;69.70
70269;DHT22;58514;48.398;-4.274;2022-07-15T09:03:14;20.70;68.00
70269;DHT22;58514;48.398;-4.274;2022-07-15T09:05:39;20.70;68.00
70269;DHT22;58514;48.398;-4.274;2022-07-15T09:08:16;20.80;68.20
70269;DHT22;58514;48.398;-4.274;2022-07-15T09:10:55;20.90;67.00
70269;DHT22;58514;48.398;-4.274;2022-07-15T09:15:54;21.10;65.00
70269;DHT22;58514;48.398;-4.274;2022-07-15T09:18:24;21.20;67.20
70269;DHT22;58514;48.398;-4.274;2022-07-15T09:20:51;21.30;65.50
70269;DHT22;58514;48.398;-4.274;2022-07-15T09:23:21;21.40;65.80
70269;DHT22;58514;48.398;-4.274;2022-07-15T09:25:49;21.50;64.10
70269;DHT22;58514;48.398;-4.274;2022-07-15T09:28:16;21.50;66.80
70269;DHT22;58514;48.398;-4.274;2022-07-15T09:30:44;21.60;64.30
70269;DHT22;58514;48.398;-4.274;2022-07-15T09:33:31;21.70;62.20
70269;DHT22;58514;48.398;-4.274;2022-07-15T09:38:37;21.80;65.00
70269;DHT22;58514;48.398;-4.274;2022-07-15T09:43:50;21.90;61.50
70269;DHT22;58514;48.398;-4.274;2022-07-15T09:46:18;21.90;64.50
70269;DHT22;58514;48.398;-4.274;2022-07-15T09:48:46;22.00;63.30
70269;DHT22;58514;48.398;-4.274;2022-07-15T09:51:13;22.10;60.60
70269;DHT22;58514;48.398;-4.274;2022-07-15T09:53:39;22.20;60.80
70269;DHT22;58514;48.398;-4.274;2022-07-15T09:56:11;22.30;60.60
70269;DHT22;58514;48.398;-4.274;2022-07-15T09:58:38;22.30;57.60
70269;DHT22;58514;48.398;-4.274;2022-07-15T10:01:06;22.40;60.20
70269;DHT22;58514;48.398;-4.274;2022-07-15T10:03:33;22.50;57.70
70269;DHT22;58514;48.398;-4.274;2022-07-15T10:06:00;22.50;57.10
70269;DHT22;58514;48.398;-4.274;2022-07-15T10:08:29;22.60;57.30
70269;DHT22;58514;48.398;-4.274;2022-07-15T10:10:56;22.70;59.70
70269;DHT22;58514;48.398;-4.274;2022-07-15T10:29:47;25.40;56.30
70269;DHT22;58514;48.398;-4.274;2022-07-15T10:32:13;25.70;52.70
70269;DHT22;58514;48.398;-4.274;2022-07-15T10:34:39;25.90;53.30
70269;DHT22;58514;48.398;-4.274;2022-07-15T10:37:09;26.20;56.80
70269;DHT22;58514;48.398;-4.274;2022-07-15T10:39:55;26.60;53.20
70269;DHT22;58514;48.398;-4.274;2022-07-15T10:42:23;27.10;56.40
70269;DHT22;58514;48.398;-4.274;2022-07-15T10:45:04;27.40;55.20
70269;DHT22;58514;48.398;-4.274;2022-07-15T10:47:32;27.90;57.40
70269;DHT22;58514;48.398;-4.274;2022-07-15T10:49:58;28.30;55.00
70269;DHT22;58514;48.398;-4.274;2022-07-15T10:52:31;28.60;49.90
70269;DHT22;58514;48.398;-4.274;2022-07-15T11:00:31;29.30;50.50
70269;DHT22;58514;48.398;-4.274;2022-07-15T11:03:11;29.50;50.70
70269;DHT22;58514;48.398;-4.274;2022-07-15T11:06:00;29.70;50.60
70269;DHT22;58514;48.398;-4.274;2022-07-15T11:13:50;30.40;43.60
70269;DHT22;58514;48.398;-4.274;2022-07-15T11:16:21;30.60;45.40
70269;DHT22;58514;48.398;-4.274;2022-07-15T11:18:52;30.70;44.20
70269;DHT22;58514;48.398;-4.274;2022-07-15T11:21:18;30.90;44.40
70269;DHT22;58514;48.398;-4.274;2022-07-15T11:23:46;31.10;44.60
70269;DHT22;58514;48.398;-4.274;2022-07-15T11:26:13;31.20;43.20
70269;DHT22;58514;48.398;-4.274;2022-07-15T11:28:47;31.30;42.50
70269;DHT22;58514;48.398;-4.274;2022-07-15T11:31:13;31.50;41.70
70269;DHT22;58514;48.398;-4.274;2022-07-15T11:33:40;31.70;39.40
70269;DHT22;58514;48.398;-4.274;2022-07-15T11:36:17;31.80;38.50
70269;DHT22;58514;48.398;-4.274;2022-07-15T11:38:43;31.70;40.40
70269;DHT22;58514;48.398;-4.274;2022-07-15T11:41:08;31.80;42.50
70269;DHT22;58514;48.398;-4.274;2022-07-15T11:44:00;32.10;43.80
70269;DHT22;58514;48.398;-4.274;2022-07-15T11:46:46;32.40;42.70
70269;DHT22;58514;48.398;-4.274;2022-07-15T11:51:56;32.70;41.10
70269;DHT22;58514;48.398;-4.274;2022-07-15T11:54:23;32.60;37.50
70269;DHT22;58514;48.398;-4.274;2022-07-15T11:57:00;32.30;39.00
70269;DHT22;58514;48.398;-4.274;2022-07-15T11:59:27;32.40;40.50
70269;DHT22;58514;48.398;-4.274;2022-07-15T12:02:22;32.50;39.30
70269;DHT22;58514;48.398;-4.274;2022-07-15T12:04:47;32.60;38.40
70269;DHT22;58514;48.398;-4.274;2022-07-15T12:07:13;32.70;40.30
70269;DHT22;58514;48.398;-4.274;2022-07-15T12:12:05;33.20;37.60
70269;DHT22;58514;48.398;-4.274;2022-07-15T12:14:31;33.50;39.40
70269;DHT22;58514;48.398;-4.274;2022-07-15T12:16:57;33.60;37.20
70269;DHT22;58514;48.398;-4.274;2022-07-15T12:19:25;33.70;37.40
70269;DHT22;58514;48.398;-4.274;2022-07-15T12:21:59;33.70;36.70
70269;DHT22;58514;48.398;-4.274;2022-07-15T12:24:35;33.90;38.10
70269;DHT22;58514;48.398;-4.274;2022-07-15T12:27:02;34.20;37.40
70269;DHT22;58514;48.398;-4.274;2022-07-15T12:29:31;34.60;38.10
70269;DHT22;58514;48.398;-4.274;2022-07-15T12:31:59;34.70;36.90
70269;DHT22;58514;48.398;-4.274;2022-07-15T12:37:14;35.00;35.90
70269;DHT22;58514;48.398;-4.274;2022-07-15T12:40:00;35.10;34.60
70269;DHT22;58514;48.398;-4.274;2022-07-15T12:45:15;35.30;35.30
70269;DHT22;58514;48.398;-4.274;2022-07-15T12:50:28;35.70;32.60
70269;DHT22;58514;48.398;-4.274;2022-07-15T12:52:55;35.60;34.40
70269;DHT22;58514;48.398;-4.274;2022-07-15T12:55:24;35.60;34.40
70269;DHT22;58514;48.398;-4.274;2022-07-15T12:57:51;35.60;32.40
70269;DHT22;58514;48.398;-4.274;2022-07-15T13:00:23;35.60;33.00
70269;DHT22;58514;48.398;-4.274;2022-07-15T13:03:11;35.80;34.30
70269;DHT22;58514;48.398;-4.274;2022-07-15T13:05:42;35.90;34.00
70269;DHT22;58514;48.398;-4.274;2022-07-15T13:08:20;35.80;32.70
70269;DHT22;58514;48.398;-4.274;2022-07-15T13:10:48;35.60;33.80
70269;DHT22;58514;48.398;-4.274;2022-07-15T13:13:16;35.30;32.30
70269;DHT22;58514;48.398;-4.274;2022-07-15T13:15:44;35.30;33.20
70269;DHT22;58514;48.398;-4.274;2022-07-15T13:18:11;35.40;32.70
70269;DHT22;58514;48.398;-4.274;2022-07-15T13:20:37;35.30;31.80
70269;DHT22;58514;48.398;-4.274;2022-07-15T13:23:04;35.30;32.90
70269;DHT22;58514;48.398;-4.274;2022-07-15T13:25:31;35.10;32.50
70269;DHT22;58514;48.398;-4.274;2022-07-15T13:27:57;35.00;32.70
70269;DHT22;58514;48.398;-4.274;2022-07-15T13:30:24;35.00;32.50
70269;DHT22;58514;48.398;-4.274;2022-07-15T13:32:50;35.10;32.50
70269;DHT22;58514;48.398;-4.274;2022-07-15T13:35:17;35.20;32.80
70269;DHT22;58514;48.398;-4.274;2022-07-15T13:37:43;35.10;32.50
70269;DHT22;58514;48.398;-4.274;2022-07-15T13:40:10;34.90;32.70
70269;DHT22;58514;48.398;-4.274;2022-07-15T13:42:37;34.80;31.80
70269;DHT22;58514;48.398;-4.274;2022-07-15T13:45:05;34.70;32.00
70269;DHT22;58514;48.398;-4.274;2022-07-15T13:47:31;34.60;32.80
70269;DHT22;58514;48.398;-4.274;2022-07-15T13:49:57;34.30;32.10
70269;DHT22;58514;48.398;-4.274;2022-07-15T13:52:45;34.10;33.10
70269;DHT22;58514;48.398;-4.274;2022-07-15T13:55:12;33.70;32.00
70269;DHT22;58514;48.398;-4.274;2022-07-15T13:57:38;33.30;32.60
70269;DHT22;58514;48.398;-4.274;2022-07-15T14:00:06;33.00;32.80
70269;DHT22;58514;48.398;-4.274;2022-07-15T14:02:33;32.80;32.70
70269;DHT22;58514;48.398;-4.274;2022-07-15T14:04:59;32.60;32.00
70269;DHT22;58514;48.398;-4.274;2022-07-15T14:07:24;32.30;33.30
70269;DHT22;58514;48.398;-4.274;2022-07-15T14:09:50;32.20;33.90
70269;DHT22;58514;48.398;-4.274;2022-07-15T14:12:16;32.10;33.80
70269;DHT22;58514;48.398;-4.274;2022-07-15T14:14:41;32.00;34.30
70269;DHT22;58514;48.398;-4.274;2022-07-15T14:17:07;31.90;33.30
70269;DHT22;58514;48.398;-4.274;2022-07-15T14:19:33;31.80;34.40
70269;DHT22;58514;48.398;-4.274;2022-07-15T14:21:58;31.80;34.40
70269;DHT22;58514;48.398;-4.274;2022-07-15T14:24:24;31.60;33.40
70269;DHT22;58514;48.398;-4.274;2022-07-15T14:26:50;31.40;34.10
70269;DHT22;58514;48.398;-4.274;2022-07-15T14:29:16;31.20;34.40
70269;DHT22;58514;48.398;-4.274;2022-07-15T14:31:41;31.10;35.20
70269;DHT22;58514;48.398;-4.274;2022-07-15T14:34:08;31.10;35.60
70269;DHT22;58514;48.398;-4.274;2022-07-15T14:36:34;31.00;34.60
70269;DHT22;58514;48.398;-4.274;2022-07-15T14:38:59;30.90;34.90
70269;DHT22;58514;48.398;-4.274;2022-07-15T14:41:25;30.90;34.80
70269;DHT22;58514;48.398;-4.274;2022-07-15T14:43:51;30.90;35.60
70269;DHT22;58514;48.398;-4.274;2022-07-15T14:46:17;30.90;35.10
70269;DHT22;58514;48.398;-4.274;2022-07-15T14:48:42;30.90;34.50
70269;DHT22;58514;48.398;-4.274;2022-07-15T14:51:08;30.70;34.30
70269;DHT22;58514;48.398;-4.274;2022-07-15T14:53:34;30.50;35.10
70269;DHT22;58514;48.398;-4.274;2022-07-15T14:55:59;30.50;34.80
70269;DHT22;58514;48.398;-4.274;2022-07-15T14:58:25;30.40;35.20
70269;DHT22;58514;48.398;-4.274;2022-07-15T15:00:51;30.30;35.60
70269;DHT22;58514;48.398;-4.274;2022-07-15T15:03:16;30.40;35.70
70269;DHT22;58514;48.398;-4.274;2022-07-15T15:05:43;30.40;35.00
70269;DHT22;58514;48.398;-4.274;2022-07-15T15:08:09;30.30;34.80
70269;DHT22;58514;48.398;-4.274;2022-07-15T15:10:35;30.20;35.30
70269;DHT22;58514;48.398;-4.274;2022-07-15T15:13:00;30.10;35.90
70269;DHT22;58514;48.398;-4.274;2022-07-15T15:15:26;30.00;35.20
70269;DHT22;58514;48.398;-4.274;2022-07-15T15:17:52;29.90;35.90
70269;DHT22;58514;48.398;-4.274;2022-07-15T15:20:18;29.80;35.50
70269;DHT22;58514;48.398;-4.274;2022-07-15T15:22:44;29.70;36.10
70269;DHT22;58514;48.398;-4.274;2022-07-15T15:25:11;29.50;35.70
70269;DHT22;58514;48.398;-4.274;2022-07-15T15:27:38;29.30;35.70
70269;DHT22;58514;48.398;-4.274;2022-07-15T15:30:05;29.10;35.70
70269;DHT22;58514;48.398;-4.274;2022-07-15T15:32:31;28.80;36.10
70269;DHT22;58514;48.398;-4.274;2022-07-15T15:34:57;28.70;37.10
70269;DHT22;58514;48.398;-4.274;2022-07-15T15:37:23;28.50;36.90
70269;DHT22;58514;48.398;-4.274;2022-07-15T15:39:49;28.30;36.80
70269;DHT22;58514;48.398;-4.274;2022-07-15T15:42:14;28.20;37.70
70269;DHT22;58514;48.398;-4.274;2022-07-15T15:44:40;28.30;37.70
70269;DHT22;58514;48.398;-4.274;2022-07-15T15:47:06;28.20;38.10
70269;DHT22;58514;48.398;-4.274;2022-07-15T15:49:32;28.10;37.00
70269;DHT22;58514;48.398;-4.274;2022-07-15T15:51:57;28.10;38.10
70269;DHT22;58514;48.398;-4.274;2022-07-15T15:54:23;28.00;37.20
70269;DHT22;58514;48.398;-4.274;2022-07-15T15:56:50;27.90;38.40
70269;DHT22;58514;48.398;-4.274;2022-07-15T15:59:16;27.70;37.90
70269;DHT22;58514;48.398;-4.274;2022-07-15T16:01:42;27.50;38.80
70269;DHT22;58514;48.398;-4.274;2022-07-15T16:04:08;27.50;38.80